Time,TemperatureF,DewpointF,PressureIn,WindDirection,WindDirectionDegrees,WindSpeedMPH,WindSpeedGustMPH,Humidity,HourlyPrecipIn,Conditions,Clouds,dailyrainin,SoftwareType,DateUTC
2013-01-21 00:05:00,41.6,41.3,30.14,SSE,158,0.0,0.0,99,0.00,,,0.00,Wunderground v.1.15,2013-01-21 06:05:00,
2013-01-21 00:13:00,41.6,41.0,30.14,SSE,158,0.0,0.0,99,0.00,,,0.00,weatherlink.com 1.10,2013-01-21 06:13:00,
2013-01-21 00:20:00,41.4,41.1,30.14,SSE,158,0.0,0.0,99,0.00,,,0.00,Wunderground v.1.15,2013-01-21 06:20:00,
2013-01-21 00:28:00,41.4,41.0,30.14,SSE,158,0.0,0.0,99,0.00,,,0.00,weatherlink.com 1.10,2013-01-21 06:28:00,
2013-01-21 00:35:00,41.2,40.9,30.14,SSE,158,0.0,0.0,99,0.00,,,0.00,Wunderground v.1.15,2013-01-21 06:35:00,
2013-01-21 00:40:00,41.0,40.5,30.14,SSE,158,0.0,0.0,98,0.00,,,0.00,Wunderground v.1.15,2013-01-21 06:40:00,
2013-01-21 00:45:00,40.8,40.5,30.13,SSE,157,0.0,0.0,99,0.00,,,0.00,Wunderground v.1.15,2013-01-21 06:45:00,
2013-01-21 00:50:00,40.8,40.5,30.13,SSE,158,0.0,0.0,99,0.00,,,0.00,Wunderground v.1.15,2013-01-21 06:50:00,
2013-01-21 00:58:00,40.6,40.0,30.13,SSE,158,0.0,0.0,99,0.00,,,0.00,weatherlink.com 1.10,2013-01-21 06:58:00,
2013-01-21 01:05:00,40.6,40.3,30.12,SSE,158,0.0,0.0,99,0.00,,,0.00,Wunderground v.1.15,2013-01-21 07:05:00,
2013-01-21 01:13:00,40.8,41.0,30.12,SSE,158,0.0,0.0,99,0.00,,,0.00,weatherlink.com 1.10,2013-01-21 07:13:00,
2013-01-21 01:20:00,41.3,41.3,30.13,SSE,158,0.0,0.0,100,0.00,,,0.00,Wunderground v.1.15,2013-01-21 07:20:00,
2013-01-21 01:29:00,41.2,41.0,30.13,SSE,158,0.0,0.0,99,0.00,,,0.00,weatherlink.com 1.10,2013-01-21 07:29:00,
2013-01-21 01:35:00,41.1,40.8,30.13,SSE,158,0.0,0.0,99,0.00,,,0.00,Wunderground v.1.15,2013-01-21 07:35:00,
2013-01-21 01:40:00,40.9,40.6,30.12,SSE,158,0.0,0.0,99,0.00,,,0.00,Wunderground v.1.15,2013-01-21 07:40:00,
2013-01-21 01:45:00,40.7,40.4,30.12,SSE,158,0.0,0.0,99,0.00,,,0.00,Wunderground v.1.15,2013-01-21 07:45:00,
2013-01-21 01:50:00,40.5,40.2,30.12,SSE,158,0.0,0.0,99,0.00,,,0.00,Wunderground v.1.15,2013-01-21 07:50:00,
2013-01-21 01:55:00,40.3,40.0,30.12,SSE,158,0.0,0.0,99,0.00,,,0.00,Wunderground v.1.15,2013-01-21 07:55:00,
2013-01-21 02:00:00,40.3,40.0,30.12,SSE,158,0.0,0.0,99,0.00,,,0.00,Wunderground v.1.15,2013-01-21 08:00:00,
2013-01-21 02:05:00,40.3,40.0,30.12,SSE,158,0.0,0.0,99,0.00,,,0.00,Wunderground v.1.15,2013-01-21 08:05:00,
2013-01-21 02:14:00,40.1,40.0,30.12,SSE,158,0.0,0.0,99,0.00,,,0.00,weatherlink.com 1.10,2013-01-21 08:14:00,
2013-01-21 02:20:00,40.2,39.9,30.12,SSE,158,0.0,0.0,99,0.00,,,0.00,Wunderground v.1.15,2013-01-21 08:20:00,
2013-01-21 02:25:00,40.2,39.9,30.11,SSE,158,0.0,0.0,99,0.00,,,0.00,Wunderground v.1.15,2013-01-21 08:25:00,
2013-01-21 02:35:00,40.2,39.9,30.12,SSE,158,0.0,0.0,99,0.00,,,0.00,Wunderground v.1.15,2013-01-21 08:35:00,
2013-01-21 02:40:00,40.1,39.8,30.12,SSE,158,0.0,0.0,99,0.00,,,0.00,Wunderground v.1.15,2013-01-21 08:40:00,
2013-01-21 02:50:00,40.3,40.0,30.12,SSE,158,0.0,0.0,99,0.00,,,0.00,Wunderground v.1.15,2013-01-21 08:50:00,
2013-01-21 02:55:00,40.1,39.8,30.12,SSE,158,0.0,0.0,99,0.00,,,0.00,Wunderground v.1.15,2013-01-21 08:55:00,
2013-01-21 03:00:00,39.9,39.6,30.12,SSE,158,0.0,0.0,99,0.00,,,0.00,Wunderground v.1.15,2013-01-21 09:00:00,
2013-01-21 03:05:00,40.0,39.7,30.12,SSE,158,0.0,0.0,99,0.00,,,0.00,Wunderground v.1.15,2013-01-21 09:05:00,
2013-01-21 03:14:00,40.0,40.0,30.12,SSE,158,0.0,0.0,99,0.00,,,0.00,weatherlink.com 1.10,2013-01-21 09:14:00,
2013-01-21 03:20:00,40.1,40.1,30.12,SSE,158,0.0,0.0,100,0.00,,,0.00,Wunderground v.1.15,2013-01-21 09:20:00,
2013-01-21 03:25:00,40.1,40.1,30.13,SSE,158,0.0,0.0,100,0.00,,,0.00,Wunderground v.1.15,2013-01-21 09:25:00,
2013-01-21 03:30:00,40.0,39.7,30.12,SSE,158,0.0,0.0,99,0.00,,,0.00,Wunderground v.1.15,2013-01-21 09:30:00,
2013-01-21 03:40:00,39.8,39.5,30.12,SSE,158,0.0,0.0,99,0.00,,,0.00,Wunderground v.1.15,2013-01-21 09:40:00,
2013-01-21 03:45:00,39.9,39.9,30.13,SSE,158,0.0,0.0,100,0.00,,,0.00,Wunderground v.1.15,2013-01-21 09:45:00,
2013-01-21 03:50:00,39.9,39.9,30.12,SSE,158,0.0,0.0,100,0.00,,,0.00,Wunderground v.1.15,2013-01-21 09:50:00,
2013-01-21 03:59:00,39.9,40.0,30.12,SSE,158,0.0,0.0,100,0.00,,,0.00,weatherlink.com 1.10,2013-01-21 09:59:00,
2013-01-21 04:05:00,39.7,39.7,30.13,SSE,158,0.0,0.0,100,0.00,,,0.00,Wunderground v.1.15,2013-01-21 10:05:00,
2013-01-21 04:14:00,39.6,40.0,30.13,SSE,158,0.0,0.0,100,0.00,,,0.00,weatherlink.com 1.10,2013-01-21 10:14:00,
2013-01-21 04:20:00,39.5,39.5,30.13,SSE,158,0.0,0.0,100,0.00,,,0.00,Wunderground v.1.15,2013-01-21 10:20:00,
2013-01-21 04:25:00,39.3,39.0,30.13,SSE,158,0.0,0.0,99,0.00,,,0.00,Wunderground v.1.15,2013-01-21 10:25:00,
2013-01-21 04:35:00,39.0,38.7,30.13,SSE,158,0.0,0.0,99,0.00,,,0.00,Wunderground v.1.15,2013-01-21 10:35:00,
2013-01-21 04:40:00,38.9,38.6,30.13,SSE,158,0.0,0.0,99,0.00,,,0.00,Wunderground v.1.15,2013-01-21 10:40:00,
2013-01-21 04:50:00,38.6,38.3,30.13,SSE,158,0.0,0.0,99,0.00,,,0.00,Wunderground v.1.15,2013-01-21 10:50:00,
2013-01-21 04:55:00,38.4,38.1,30.13,SSE,158,0.0,0.0,99,0.00,,,0.00,Wunderground v.1.15,2013-01-21 10:55:00,
2013-01-21 05:00:00,38.3,38.0,30.12,SSE,158,0.0,0.0,99,0.00,,,0.00,Wunderground v.1.15,2013-01-21 11:00:00,
2013-01-21 05:05:00,38.2,37.9,30.13,SSE,158,0.0,0.0,99,0.00,,,0.00,Wunderground v.1.15,2013-01-21 11:05:00,
2013-01-21 05:14:00,38.0,38.0,30.13,SSE,158,0.0,0.0,99,0.00,,,0.00,weatherlink.com 1.10,2013-01-21 11:14:00,
2013-01-21 05:20:00,38.2,37.9,30.13,SSE,158,0.0,0.0,99,0.00,,,0.00,Wunderground v.1.15,2013-01-21 11:20:00,
2013-01-21 05:25:00,38.6,38.6,30.13,SSE,158,0.0,0.0,100,0.00,,,0.00,Wunderground v.1.15,2013-01-21 11:25:00,
2013-01-21 05:30:00,38.7,38.7,30.13,SSE,158,0.0,0.0,100,0.00,,,0.00,Wunderground v.1.15,2013-01-21 11:30:00,
2013-01-21 05:35:00,38.5,38.5,30.13,SSE,158,0.0,0.0,100,0.00,,,0.00,Wunderground v.1.15,2013-01-21 11:35:00,
2013-01-21 05:44:00,38.2,38.0,30.14,SSE,158,0.0,0.0,99,0.00,,,0.00,weatherlink.com 1.10,2013-01-21 11:44:00,
2013-01-21 05:50:00,38.2,38.2,30.14,SSE,158,0.0,0.0,100,0.00,,,0.00,Wunderground v.1.15,2013-01-21 11:50:00,
2013-01-21 05:59:00,38.3,38.0,30.14,SSE,158,0.0,0.0,100,0.00,,,0.00,weatherlink.com 1.10,2013-01-21 11:59:00,
2013-01-21 06:05:00,38.5,38.5,30.14,SSE,158,0.0,0.0,100,0.00,,,0.00,Wunderground v.1.15,2013-01-21 12:05:00,
2013-01-21 06:14:00,38.2,38.0,30.14,SSE,158,0.0,0.0,99,0.00,,,0.00,weatherlink.com 1.10,2013-01-21 12:14:00,
2013-01-21 06:20:00,38.0,37.7,30.14,SSE,158,0.0,0.0,99,0.00,,,0.00,Wunderground v.1.15,2013-01-21 12:20:00,
2013-01-21 06:25:00,37.8,37.5,30.15,SSE,158,0.0,0.0,99,0.00,,,0.00,Wunderground v.1.15,2013-01-21 12:25:00,
2013-01-21 06:30:00,37.8,37.5,30.14,SSE,158,0.0,0.0,99,0.00,,,0.00,Wunderground v.1.15,2013-01-21 12:30:00,
2013-01-21 06:35:00,37.7,37.4,30.14,SSE,158,0.0,0.0,99,0.00,,,0.00,Wunderground v.1.15,2013-01-21 12:35:00,
2013-01-21 06:40:00,37.6,37.3,30.15,SSE,158,0.0,0.0,99,0.00,,,0.00,Wunderground v.1.15,2013-01-21 12:40:00,
2013-01-21 06:45:00,37.4,37.1,30.15,SSE,158,0.0,0.0,99,0.00,,,0.00,Wunderground v.1.15,2013-01-21 12:45:00,
2013-01-21 06:55:00,37.5,37.5,30.15,SSE,158,0.0,0.0,100,0.00,,,0.00,Wunderground v.1.15,2013-01-21 12:55:00,
2013-01-21 07:00:00,37.8,37.8,30.15,SSE,158,0.0,0.0,100,0.00,,,0.00,Wunderground v.1.15,2013-01-21 13:00:00,
2013-01-21 07:05:00,38.5,38.5,30.15,SSE,158,0.0,0.0,100,0.00,,,0.00,Wunderground v.1.15,2013-01-21 13:05:00,
2013-01-21 07:15:00,39.8,39.8,30.16,SSE,162,0.0,0.0,100,0.00,,,0.00,Wunderground v.1.15,2013-01-21 13:15:00,
2013-01-21 07:20:00,40.2,40.2,30.16,SW,217,0.0,0.0,100,0.00,,,0.00,Wunderground v.1.15,2013-01-21 13:20:00,
2013-01-21 07:30:00,40.7,40.7,30.17,SW,217,0.0,0.0,100,0.00,,,0.00,Wunderground v.1.15,2013-01-21 13:30:00,
2013-01-21 07:35:00,41.3,41.3,30.17,SW,217,0.0,0.0,100,0.00,,,0.00,Wunderground v.1.15,2013-01-21 13:35:00,
2013-01-21 07:40:00,41.9,41.9,30.17,SW,217,0.0,0.0,100,0.00,,,0.00,Wunderground v.1.15,2013-01-21 13:40:00,
2013-01-21 07:45:00,42.6,42.6,30.17,SW,217,0.0,0.0,100,0.00,,,0.00,Wunderground v.1.15,2013-01-21 13:45:00,
2013-01-21 07:50:00,43.6,43.6,30.17,SW,217,0.0,0.0,100,0.00,,,0.00,Wunderground v.1.15,2013-01-21 13:50:00,
2013-01-21 07:55:00,44.6,44.6,30.17,SW,217,0.0,0.0,100,0.00,,,0.00,Wunderground v.1.15,2013-01-21 13:55:00,
2013-01-21 08:01:00,45.1,45.0,30.17,SW,217,0.0,0.0,100,0.00,,,0.00,weatherlink.com 1.10,2013-01-21 14:01:00,
2013-01-21 08:10:00,46.9,46.9,30.18,SW,217,0.0,0.0,100,0.00,,,0.00,Wunderground v.1.15,2013-01-21 14:10:00,
2013-01-21 08:15:00,47.6,47.6,30.18,ENE,71,0.0,0.0,100,0.00,,,0.00,Wunderground v.1.15,2013-01-21 14:15:00,
2013-01-21 08:20:00,48.2,48.2,30.18,ENE,71,0.0,0.0,100,0.00,,,0.00,Wunderground v.1.15,2013-01-21 14:20:00,
2013-01-21 08:25:00,48.7,48.7,30.18,NNW,342,0.0,0.0,100,0.00,,,0.00,Wunderground v.1.15,2013-01-21 14:25:00,
2013-01-21 08:30:00,48.6,48.6,30.19,NE,54,0.0,0.0,100,0.00,,,0.00,Wunderground v.1.15,2013-01-21 14:30:00,
2013-01-21 08:40:00,48.9,48.9,30.19,NW,309,0.0,0.0,100,0.00,,,0.00,Wunderground v.1.15,2013-01-21 14:40:00,
2013-01-21 08:45:00,49.1,48.8,30.19,WNW,286,0.0,0.0,99,0.00,,,0.00,Wunderground v.1.15,2013-01-21 14:45:00,
2013-01-21 08:50:00,49.3,49.0,30.20,NW,321,0.0,0.0,99,0.00,,,0.00,Wunderground v.1.15,2013-01-21 14:50:00,
2013-01-21 08:55:00,49.9,49.6,30.20,ENE,75,0.0,0.0,99,0.00,,,0.00,Wunderground v.1.15,2013-01-21 14:55:00,
2013-01-21 09:00:00,50.5,50.2,30.20,NE,51,0.0,0.0,99,0.00,,,0.00,Wunderground v.1.15,2013-01-21 15:00:00,
2013-01-21 09:05:00,51.4,51.1,30.20,NNW,336,0.0,0.0,99,0.00,,,0.00,Wunderground v.1.15,2013-01-21 15:05:00,
2013-01-21 09:15:00,52.4,51.0,30.20,NE,50,0.0,0.0,95,0.00,,,0.01,Wunderground v.1.15,2013-01-21 15:15:00,
2013-01-21 09:20:00,52.9,50.3,30.20,North,360,0.0,0.0,91,0.00,,,0.01,Wunderground v.1.15,2013-01-21 15:20:00,
2013-01-21 09:25:00,53.9,50.1,30.20,NE,41,0.0,0.0,87,0.00,,,0.01,Wunderground v.1.15,2013-01-21 15:25:00,
2013-01-21 09:30:00,55.2,50.4,30.20,NE,50,0.0,3.0,84,0.00,,,0.01,Wunderground v.1.15,2013-01-21 15:30:00,
2013-01-21 09:35:00,56.3,49.9,30.20,NW,312,0.0,3.0,79,0.00,,,0.01,Wunderground v.1.15,2013-01-21 15:35:00,
2013-01-21 09:45:00,57.6,49.4,30.20,East,80,0.0,2.0,74,0.00,,,0.01,Wunderground v.1.15,2013-01-21 15:45:00,
2013-01-21 09:50:00,58.3,49.3,30.20,West,267,0.0,0.0,72,0.00,,,0.01,Wunderground v.1.15,2013-01-21 15:50:00,
2013-01-21 09:55:00,58.7,48.9,30.20,ENE,74,0.0,0.0,70,0.00,,,0.01,Wunderground v.1.15,2013-01-21 15:55:00,
2013-01-21 10:00:00,59.3,49.9,30.20,NNW,331,0.0,2.0,71,0.00,,,0.01,Wunderground v.1.15,2013-01-21 16:00:00,
2013-01-21 10:05:00,60.0,49.0,30.20,NW,319,0.0,2.0,67,0.00,,,0.01,Wunderground v.1.15,2013-01-21 16:05:00,
2013-01-21 10:15:00,60.5,47.4,30.20,NW,315,1.0,1.0,62,0.00,,,0.01,Wunderground v.1.15,2013-01-21 16:15:00,
2013-01-21 10:20:00,60.9,47.4,30.19,WNW,291,1.0,1.0,61,0.00,,,0.01,Wunderground v.1.15,2013-01-21 16:20:00,
2013-01-21 10:25:00,60.9,46.9,30.19,WNW,295,1.0,1.0,60,0.00,,,0.01,Wunderground v.1.15,2013-01-21 16:25:00,
2013-01-21 10:30:00,61.3,47.7,30.19,North,4,1.0,1.0,61,0.00,,,0.01,Wunderground v.1.15,2013-01-21 16:30:00,
2013-01-21 10:35:00,61.8,46.9,30.19,East,86,1.0,1.0,58,0.00,,,0.01,Wunderground v.1.15,2013-01-21 16:35:00,
2013-01-21 10:40:00,61.9,47.4,30.18,NNW,339,1.0,1.0,59,0.00,,,0.01,Wunderground v.1.15,2013-01-21 16:40:00,
2013-01-21 10:45:00,62.0,46.6,30.18,NNE,26,1.0,1.0,57,0.00,,,0.01,Wunderground v.1.15,2013-01-21 16:45:00,
2013-01-21 10:55:00,62.3,46.9,30.18,East,94,1.0,2.0,57,0.00,,,0.01,Wunderground v.1.15,2013-01-21 16:55:00,
2013-01-21 11:00:00,62.6,46.2,30.18,West,262,1.0,1.0,55,0.00,,,0.01,Wunderground v.1.15,2013-01-21 17:00:00,
2013-01-21 11:05:00,63.1,47.1,30.18,NW,304,1.0,1.0,56,0.00,,,0.01,Wunderground v.1.15,2013-01-21 17:05:00,
2013-01-21 11:15:00,64.1,47.6,30.18,NNE,21,1.0,1.0,55,0.00,,,0.01,Wunderground v.1.15,2013-01-21 17:15:00,
2013-01-21 11:20:00,64.3,47.3,30.17,WNW,291,1.0,1.0,54,0.00,,,0.01,Wunderground v.1.15,2013-01-21 17:20:00,
2013-01-21 11:30:00,64.5,46.0,30.16,NE,44,4.0,8.0,52,0.00,,,0.01,weatherlink.com 1.10,2013-01-21 17:30:00,
2013-01-21 11:35:00,64.6,47.1,30.16,ENE,73,2.0,2.0,53,0.00,,,0.01,Wunderground v.1.15,2013-01-21 17:35:00,
2013-01-21 11:45:00,64.5,47.5,30.16,WNW,300,2.0,2.0,54,0.00,,,0.01,Wunderground v.1.15,2013-01-21 17:45:00,
2013-01-21 11:50:00,64.9,47.4,30.16,NE,56,1.0,1.0,53,0.00,,,0.01,Wunderground v.1.15,2013-01-21 17:50:00,
2013-01-21 11:55:00,65.0,47.4,30.15,NNE,30,2.0,2.0,53,0.00,,,0.01,Wunderground v.1.15,2013-01-21 17:55:00,
2013-01-21 12:01:00,65.2,47.0,30.15,WNW,295,1.0,7.0,53,0.00,,,0.01,weatherlink.com 1.10,2013-01-21 18:01:00,
2013-01-21 12:10:00,65.1,47.0,30.15,NE,37,3.0,3.0,52,0.00,,,0.01,Wunderground v.1.15,2013-01-21 18:10:00,
2013-01-21 12:15:00,65.3,47.7,30.15,NE,50,2.0,3.0,53,0.00,,,0.01,Wunderground v.1.15,2013-01-21 18:15:00,
2013-01-21 12:20:00,65.6,47.5,30.15,West,271,2.0,2.0,52,0.00,,,0.01,Wunderground v.1.15,2013-01-21 18:20:00,
2013-01-21 12:25:00,65.9,47.3,30.14,WNW,283,2.0,2.0,51,0.00,,,0.01,Wunderground v.1.15,2013-01-21 18:25:00,
2013-01-21 12:30:00,66.1,47.4,30.14,WSW,245,2.0,2.0,51,0.00,,,0.01,Wunderground v.1.15,2013-01-21 18:30:00,
2013-01-21 12:40:00,66.5,47.8,30.14,NNE,33,2.0,2.0,51,0.00,,,0.01,Wunderground v.1.15,2013-01-21 18:40:00,
2013-01-21 12:45:00,66.9,47.1,30.14,NNE,27,2.0,2.0,49,0.00,,,0.01,Wunderground v.1.15,2013-01-21 18:45:00,
2013-01-21 12:50:00,67.0,46.7,30.13,NW,311,2.0,2.0,48,0.00,,,0.01,Wunderground v.1.15,2013-01-21 18:50:00,
2013-01-21 12:55:00,67.3,46.9,30.13,North,349,2.0,2.0,48,0.00,,,0.01,Wunderground v.1.15,2013-01-21 18:55:00,
2013-01-21 13:00:00,67.6,46.6,30.13,West,270,2.0,2.0,47,0.00,,,0.01,Wunderground v.1.15,2013-01-21 19:00:00,
2013-01-21 13:05:00,67.5,47.1,30.13,NE,36,2.0,2.0,48,0.00,,,0.01,Wunderground v.1.15,2013-01-21 19:05:00,
2013-01-21 13:15:00,67.1,46.7,30.12,NE,49,3.0,3.0,48,0.00,,,0.01,Wunderground v.1.15,2013-01-21 19:15:00,
2013-01-21 13:20:00,67.4,46.5,30.12,NNW,335,2.0,2.0,47,0.00,,,0.01,Wunderground v.1.15,2013-01-21 19:20:00,
2013-01-21 13:30:00,67.6,46.1,30.12,NW,319,1.0,4.0,46,0.00,,,0.01,Wunderground v.1.15,2013-01-21 19:30:00,
2013-01-21 13:35:00,67.4,45.9,30.12,NE,34,1.0,4.0,46,0.00,,,0.01,Wunderground v.1.15,2013-01-21 19:35:00,
2013-01-21 13:40:00,67.3,46.4,30.12,NW,314,1.0,1.0,47,0.00,,,0.01,Wunderground v.1.15,2013-01-21 19:40:00,
2013-01-21 13:46:00,67.6,45.0,30.12,NE,55,4.0,5.0,45,0.00,,,0.01,weatherlink.com 1.10,2013-01-21 19:46:00,
2013-01-21 13:55:00,67.4,45.9,30.12,West,260,1.0,2.0,46,0.00,,,0.01,Wunderground v.1.15,2013-01-21 19:55:00,
2013-01-21 14:00:00,67.3,46.4,30.12,East,100,1.0,1.0,47,0.00,,,0.01,Wunderground v.1.15,2013-01-21 20:00:00,
2013-01-21 14:05:00,67.5,46.6,30.12,ENE,68,1.0,1.0,47,0.00,,,0.01,Wunderground v.1.15,2013-01-21 20:05:00,
2013-01-21 14:15:00,67.3,45.8,30.12,NE,38,1.0,1.0,46,0.00,,,0.01,Wunderground v.1.15,2013-01-21 20:15:00,
2013-01-21 14:25:00,67.3,45.8,30.12,ENE,70,1.0,3.0,46,0.00,,,0.01,Wunderground v.1.15,2013-01-21 20:25:00,
2013-01-21 14:31:00,67.6,46.0,30.12,WNW,297,0.0,3.0,46,0.00,,,0.01,weatherlink.com 1.10,2013-01-21 20:31:00,
2013-01-21 14:40:00,67.4,47.0,30.12,NNE,13,2.0,2.0,48,0.00,,,0.01,Wunderground v.1.15,2013-01-21 20:40:00,
2013-01-21 14:45:00,67.5,46.6,30.12,ENE,76,1.0,2.0,47,0.00,,,0.01,Wunderground v.1.15,2013-01-21 20:45:00,
2013-01-21 14:50:00,67.3,46.9,30.12,ENE,69,1.0,1.0,48,0.00,,,0.01,Wunderground v.1.15,2013-01-21 20:50:00,
2013-01-21 15:00:00,67.1,47.3,30.12,NE,56,1.0,2.0,49,0.00,,,0.01,Wunderground v.1.15,2013-01-21 21:00:00,
2013-01-21 15:05:00,67.0,47.2,30.12,NE,46,1.0,2.0,49,0.00,,,0.01,Wunderground v.1.15,2013-01-21 21:05:00,
2013-01-21 15:15:00,67.3,48.0,30.12,ENE,68,0.0,1.0,50,0.00,,,0.01,Wunderground v.1.15,2013-01-21 21:15:00,
2013-01-21 15:25:00,66.8,48.1,30.12,NNW,333,1.0,1.0,51,0.00,,,0.01,Wunderground v.1.15,2013-01-21 21:25:00,
2013-01-21 15:31:00,66.7,47.0,30.12,NE,34,0.0,4.0,50,0.00,,,0.01,weatherlink.com 1.10,2013-01-21 21:31:00,
2013-01-21 15:40:00,66.6,47.9,30.12,East,86,1.0,1.0,51,0.00,,,0.01,Wunderground v.1.15,2013-01-21 21:40:00,
2013-01-21 15:45:00,66.7,47.5,30.12,NW,323,0.0,1.0,50,0.00,,,0.01,Wunderground v.1.15,2013-01-21 21:45:00,
2013-01-21 15:50:00,66.6,47.4,30.13,NNE,31,1.0,1.0,50,0.00,,,0.01,Wunderground v.1.15,2013-01-21 21:50:00,
2013-01-21 15:55:00,66.4,48.2,30.13,ENE,68,1.0,1.0,52,0.00,,,0.01,Wunderground v.1.15,2013-01-21 21:55:00,
2013-01-21 16:00:00,66.2,48.0,30.13,ENE,72,0.0,0.0,52,0.00,,,0.01,Wunderground v.1.15,2013-01-21 22:00:00,
2013-01-21 16:05:00,65.8,46.6,30.13,West,270,1.0,1.0,50,0.00,,,0.01,Wunderground v.1.15,2013-01-21 22:05:00,
2013-01-21 16:15:00,65.1,46.5,30.13,ESE,115,1.0,1.0,51,0.00,,,0.01,Wunderground v.1.15,2013-01-21 22:15:00,
2013-01-21 16:25:00,64.5,46.0,30.13,NNW,342,0.0,1.0,51,0.00,,,0.01,Wunderground v.1.15,2013-01-21 22:25:00,
2013-01-21 16:30:00,64.2,46.2,30.13,ENE,70,0.0,0.0,52,0.00,,,0.01,Wunderground v.1.15,2013-01-21 22:30:00,
2013-01-21 16:35:00,64.1,46.1,30.13,West,264,0.0,0.0,52,0.00,,,0.01,Wunderground v.1.15,2013-01-21 22:35:00,
2013-01-21 16:45:00,63.4,46.0,30.14,ENE,75,0.0,0.0,53,0.00,,,0.01,Wunderground v.1.15,2013-01-21 22:45:00,
2013-01-21 16:50:00,62.9,46.0,30.14,NW,322,0.0,0.0,54,0.00,,,0.01,Wunderground v.1.15,2013-01-21 22:50:00,
2013-01-21 16:55:00,62.3,45.4,30.14,NW,323,0.0,0.0,54,0.00,,,0.01,Wunderground v.1.15,2013-01-21 22:55:00,
2013-01-21 17:01:00,61.8,46.0,30.14,NW,323,0.0,3.0,56,0.00,,,0.01,weatherlink.com 1.10,2013-01-21 23:01:00,
2013-01-21 17:10:00,60.5,46.1,30.14,WSW,245,0.0,0.0,59,0.00,,,0.01,Wunderground v.1.15,2013-01-21 23:10:00,
2013-01-21 17:15:00,59.7,45.3,30.15,WSW,245,0.0,0.0,59,0.00,,,0.01,Wunderground v.1.15,2013-01-21 23:15:00,
2013-01-21 17:25:00,58.1,46.0,30.15,WSW,245,0.0,0.0,64,0.00,,,0.01,Wunderground v.1.15,2013-01-21 23:25:00,
2013-01-21 17:30:00,57.4,45.7,30.15,WSW,245,0.0,0.0,65,0.00,,,0.01,Wunderground v.1.15,2013-01-21 23:30:00,
2013-01-21 17:35:00,56.6,45.4,30.15,WSW,244,0.0,0.0,66,0.00,,,0.01,Wunderground v.1.15,2013-01-21 23:35:00,
2013-01-21 17:40:00,55.8,45.0,30.15,WSW,244,0.0,0.0,67,0.00,,,0.01,Wunderground v.1.15,2013-01-21 23:40:00,
2013-01-21 17:45:00,55.2,45.2,30.15,WSW,245,0.0,0.0,69,0.00,,,0.01,Wunderground v.1.15,2013-01-21 23:45:00,
2013-01-21 17:55:00,54.3,45.8,30.16,WSW,244,0.0,0.0,73,0.00,,,0.01,Wunderground v.1.15,2013-01-21 23:55:00,
2013-01-21 18:00:00,53.9,45.8,30.16,WSW,244,0.0,0.0,74,0.00,,,0.01,Wunderground v.1.15,2013-01-22 00:00:00,
2013-01-21 18:05:00,53.5,46.1,30.16,WSW,245,0.0,0.0,76,0.00,,,0.01,Wunderground v.1.15,2013-01-22 00:05:00,
2013-01-21 18:15:00,52.8,46.5,30.16,WSW,245,0.0,0.0,79,0.00,,,0.01,Wunderground v.1.15,2013-01-22 00:15:00,
2013-01-21 18:20:00,52.5,46.8,30.16,WSW,244,0.0,0.0,81,0.00,,,0.01,Wunderground v.1.15,2013-01-22 00:20:00,
2013-01-21 18:25:00,52.2,46.9,30.17,WSW,245,0.0,0.0,82,0.00,,,0.01,Wunderground v.1.15,2013-01-22 00:25:00,
2013-01-21 18:32:00,51.6,46.0,30.16,WSW,245,0.0,0.0,82,0.00,,,0.01,weatherlink.com 1.10,2013-01-22 00:32:00,
2013-01-21 18:40:00,50.7,45.7,30.17,WSW,244,0.0,0.0,83,0.00,,,0.01,Wunderground v.1.15,2013-01-22 00:40:00,
2013-01-21 18:45:00,50.3,45.6,30.17,WSW,244,0.0,0.0,84,0.00,,,0.01,Wunderground v.1.15,2013-01-22 00:45:00,
2013-01-21 18:55:00,49.4,44.8,30.17,WSW,245,0.0,0.0,84,0.00,,,0.01,Wunderground v.1.15,2013-01-22 00:55:00,
2013-01-21 19:00:00,48.9,44.3,30.17,WSW,245,0.0,0.0,84,0.00,,,0.01,Wunderground v.1.15,2013-01-22 01:00:00,
2013-01-21 19:05:00,48.5,44.2,30.17,WSW,244,0.0,0.0,85,0.00,,,0.01,Wunderground v.1.15,2013-01-22 01:05:00,
2013-01-21 19:15:00,48.3,44.6,30.17,WSW,245,0.0,0.0,87,0.00,,,0.01,Wunderground v.1.15,2013-01-22 01:15:00,
2013-01-21 19:20:00,48.1,44.4,30.17,WSW,245,0.0,0.0,87,0.00,,,0.01,Wunderground v.1.15,2013-01-22 01:20:00,
2013-01-21 19:25:00,47.9,44.2,30.18,WSW,245,0.0,0.0,87,0.00,,,0.01,Wunderground v.1.15,2013-01-22 01:25:00,
2013-01-21 19:30:00,47.6,43.9,30.17,WSW,245,0.0,0.0,87,0.00,,,0.01,Wunderground v.1.15,2013-01-22 01:30:00,
2013-01-21 19:35:00,47.5,44.1,30.18,WSW,245,0.0,0.0,88,0.00,,,0.01,Wunderground v.1.15,2013-01-22 01:35:00,
2013-01-21 19:45:00,47.6,44.8,30.18,WSW,245,0.0,0.0,90,0.00,,,0.01,Wunderground v.1.15,2013-01-22 01:45:00,
2013-01-21 19:50:00,47.6,44.8,30.18,WSW,245,0.0,0.0,90,0.00,,,0.01,Wunderground v.1.15,2013-01-22 01:50:00,
2013-01-21 19:55:00,47.6,44.8,30.18,WSW,245,0.0,0.0,90,0.00,,,0.01,Wunderground v.1.15,2013-01-22 01:55:00,
2013-01-21 20:02:00,47.7,45.0,30.18,WSW,245,0.0,0.0,91,0.00,,,0.01,weatherlink.com 1.10,2013-01-22 02:02:00,
2013-01-21 20:10:00,47.7,45.5,30.18,WSW,245,0.0,0.0,92,0.00,,,0.01,Wunderground v.1.15,2013-01-22 02:10:00,
2013-01-21 20:15:00,47.7,45.5,30.18,WSW,245,0.0,0.0,92,0.00,,,0.01,Wunderground v.1.15,2013-01-22 02:15:00,
2013-01-21 20:20:00,47.6,45.4,30.19,WSW,245,0.0,0.0,92,0.00,,,0.01,Wunderground v.1.15,2013-01-22 02:20:00,
2013-01-21 20:30:00,47.5,45.6,30.19,WSW,245,0.0,0.0,93,0.00,,,0.01,Wunderground v.1.15,2013-01-22 02:30:00,
2013-01-21 20:35:00,47.3,45.4,30.19,WSW,245,0.0,0.0,93,0.00,,,0.01,Wunderground v.1.15,2013-01-22 02:35:00,
2013-01-21 20:40:00,47.2,45.3,30.19,WSW,244,0.0,0.0,93,0.00,,,0.01,Wunderground v.1.15,2013-01-22 02:40:00,
2013-01-21 20:45:00,47.1,45.2,30.19,WSW,244,0.0,0.0,93,0.00,,,0.01,Wunderground v.1.15,2013-01-22 02:45:00,
2013-01-21 20:55:00,46.8,44.9,30.19,WSW,245,0.0,0.0,93,0.00,,,0.01,Wunderground v.1.15,2013-01-22 02:55:00,
2013-01-21 21:00:00,46.7,45.1,30.19,WSW,245,0.0,0.0,94,0.00,,,0.01,Wunderground v.1.15,2013-01-22 03:00:00,
2013-01-21 21:05:00,46.5,44.6,30.19,WSW,245,0.0,0.0,93,0.00,,,0.01,Wunderground v.1.15,2013-01-22 03:05:00,
2013-01-21 21:15:00,46.4,44.8,30.19,WSW,245,0.0,0.0,94,0.00,,,0.01,Wunderground v.1.15,2013-01-22 03:15:00,
2013-01-21 21:20:00,46.3,44.7,30.19,WSW,245,0.0,0.0,94,0.00,,,0.01,Wunderground v.1.15,2013-01-22 03:20:00,
2013-01-21 21:30:00,46.1,44.5,30.19,ENE,65,0.0,0.0,94,0.00,,,0.01,Wunderground v.1.15,2013-01-22 03:30:00,
2013-01-21 21:35:00,46.7,45.3,30.19,WNW,294,0.0,0.0,95,0.00,,,0.01,Wunderground v.1.15,2013-01-22 03:35:00,
2013-01-21 21:40:00,47.9,45.7,30.19,ENE,63,0.0,0.0,92,0.00,,,0.01,Wunderground v.1.15,2013-01-22 03:40:00,
2013-01-21 21:45:00,49.2,45.8,30.19,North,359,0.0,0.0,88,0.00,,,0.01,Wunderground v.1.15,2013-01-22 03:45:00,
2013-01-21 21:50:00,49.7,45.1,30.19,ENE,63,0.0,0.0,84,0.00,,,0.01,Wunderground v.1.15,2013-01-22 03:50:00,
2013-01-21 21:55:00,50.3,45.3,30.20,NE,40,0.0,0.0,83,0.00,,,0.01,Wunderground v.1.15,2013-01-22 03:55:00,
2013-01-21 22:02:00,50.5,45.0,30.20,NE,39,0.0,0.0,81,0.00,,,0.01,weatherlink.com 1.10,2013-01-22 04:02:00,
2013-01-21 22:10:00,50.3,44.7,30.20,WNW,297,0.0,0.0,81,0.00,,,0.01,Wunderground v.1.15,2013-01-22 04:10:00,
2013-01-21 22:15:00,50.0,44.4,30.19,WNW,296,0.0,0.0,81,0.00,,,0.01,Wunderground v.1.15,2013-01-22 04:15:00,
2013-01-21 22:25:00,49.5,44.6,30.19,NNW,345,0.0,0.0,83,0.00,,,0.01,Wunderground v.1.15,2013-01-22 04:25:00,
2013-01-21 22:30:00,49.3,44.4,30.19,NNW,345,0.0,0.0,83,0.00,,,0.01,Wunderground v.1.15,2013-01-22 04:30:00,
2013-01-21 22:40:00,48.6,44.0,30.19,NNW,342,0.0,0.0,84,0.00,,,0.01,Wunderground v.1.15,2013-01-22 04:40:00,
2013-01-21 22:45:00,48.2,43.6,30.19,NNW,342,0.0,0.0,84,0.00,,,0.01,Wunderground v.1.15,2013-01-22 04:45:00,
2013-01-21 22:50:00,47.8,43.5,30.19,NNW,342,0.0,0.0,85,0.00,,,0.01,Wunderground v.1.15,2013-01-22 04:50:00,
2013-01-21 22:55:00,47.4,43.4,30.19,NNW,342,0.0,0.0,86,0.00,,,0.01,Wunderground v.1.15,2013-01-22 04:55:00,
2013-01-21 23:00:00,47.0,43.3,30.19,NNW,342,0.0,0.0,87,0.00,,,0.01,Wunderground v.1.15,2013-01-22 05:00:00,
2013-01-21 23:02:00,46.9,43.0,30.19,NNW,343,0.0,0.0,87,0.00,,,0.01,weatherlink.com 1.10,2013-01-22 05:02:00,
2013-01-21 23:05:00,46.7,43.3,30.19,NNW,342,0.0,0.0,88,0.00,,,0.01,Wunderground v.1.15,2013-01-22 05:05:00,
2013-01-21 23:15:00,46.4,43.6,30.19,NNW,342,0.0,0.0,90,0.00,,,0.01,Wunderground v.1.15,2013-01-22 05:15:00,
2013-01-21 23:20:00,46.5,43.7,30.19,NNW,342,0.0,0.0,90,0.00,,,0.01,Wunderground v.1.15,2013-01-22 05:20:00,
2013-01-21 23:25:00,46.4,43.9,30.19,NNW,342,0.0,0.0,91,0.00,,,0.01,Wunderground v.1.15,2013-01-22 05:25:00,
2013-01-21 23:30:00,46.3,43.8,30.19,NNW,342,0.0,0.0,91,0.00,,,0.01,Wunderground v.1.15,2013-01-22 05:30:00,
2013-01-21 23:40:00,46.0,43.5,30.19,North,353,0.0,0.0,91,0.00,,,0.01,Wunderground v.1.15,2013-01-22 05:40:00,
2013-01-21 23:45:00,46.0,43.5,30.19,NNW,333,0.0,0.0,91,0.00,,,0.01,Wunderground v.1.15,2013-01-22 05:45:00,
2013-01-21 23:55:00,46.1,43.3,30.19,ENE,75,0.0,0.0,90,0.00,,,0.01,Wunderground v.1.15,2013-01-22 05:55:00,